sensor_id;sensor_type;location;lat;lon;timestamp;pressure;altitude;pressure_sealevel;temperature
54746;BMP180;40640;48.130;11.356;2023-07-20T00:01:21;95530.00;;;23.20
54746;BMP180;40640;48.130;11.356;2023-07-20T00:05:42;95529.00;;;23.20
54746;BMP180;40640;48.130;11.356;2023-07-20T00:09:45;95519.00;;;23.10
54746;BMP180;40640;48.130;11.356;2023-07-20T00:13:49;95525.00;;;23.10
54746;BMP180;40640;48.130;11.356;2023-07-20T00:17:52;95520.00;;;23.00
54746;BMP180;40640;48.130;11.356;2023-07-20T00:21:55;95518.00;;;23.00
54746;BMP180;40640;48.130;11.356;2023-07-20T00:25:58;95531.00;;;22.90
54746;BMP180;40640;48.130;11.356;2023-07-20T00:30:03;95539.00;;;22.90
54746;BMP180;40640;48.130;11.356;2023-07-20T00:34:07;95536.00;;;22.90
54746;BMP180;40640;48.130;11.356;2023-07-20T00:38:10;95534.00;;;22.90
54746;BMP180;40640;48.130;11.356;2023-07-20T00:42:13;95538.00;;;22.90
54746;BMP180;40640;48.130;11.356;2023-07-20T00:46:17;95526.00;;;22.90
54746;BMP180;40640;48.130;11.356;2023-07-20T00:50:20;95534.00;;;22.90
54746;BMP180;40640;48.130;11.356;2023-07-20T00:54:23;95549.00;;;22.90
54746;BMP180;40640;48.130;11.356;2023-07-20T00:58:27;95550.00;;;22.80
54746;BMP180;40640;48.130;11.356;2023-07-20T01:02:31;95540.00;;;22.90
54746;BMP180;40640;48.130;11.356;2023-07-20T01:06:42;95533.00;;;22.90
54746;BMP180;40640;48.130;11.356;2023-07-20T01:10:52;95525.00;;;22.70
54746;BMP180;40640;48.130;11.356;2023-07-20T01:14:56;95534.00;;;22.70
54746;BMP180;40640;48.130;11.356;2023-07-20T01:19:00;95528.00;;;22.60
54746;BMP180;40640;48.130;11.356;2023-07-20T01:23:25;95530.00;;;22.70
54746;BMP180;40640;48.130;11.356;2023-07-20T01:28:05;95538.00;;;22.50
54746;BMP180;40640;48.130;11.356;2023-07-20T01:32:14;95526.00;;;22.50
54746;BMP180;40640;48.130;11.356;2023-07-20T01:36:22;95530.00;;;22.50
54746;BMP180;40640;48.130;11.356;2023-07-20T01:40:26;95541.00;;;22.50
54746;BMP180;40640;48.130;11.356;2023-07-20T01:44:30;95527.00;;;22.50
54746;BMP180;40640;48.130;11.356;2023-07-20T01:48:34;95535.00;;;22.50
54746;BMP180;40640;48.130;11.356;2023-07-20T01:52:37;95536.00;;;22.50
54746;BMP180;40640;48.130;11.356;2023-07-20T01:56:40;95532.00;;;22.40
54746;BMP180;40640;48.130;11.356;2023-07-20T02:00:42;95540.00;;;22.30
54746;BMP180;40640;48.130;11.356;2023-07-20T02:04:47;95540.00;;;22.40
54746;BMP180;40640;48.130;11.356;2023-07-20T02:08:50;95537.00;;;22.40
54746;BMP180;40640;48.130;11.356;2023-07-20T02:12:53;95553.00;;;22.30
54746;BMP180;40640;48.130;11.356;2023-07-20T02:16:56;95540.00;;;22.20
54746;BMP180;40640;48.130;11.356;2023-07-20T02:21:04;95546.00;;;22.20
54746;BMP180;40640;48.130;11.356;2023-07-20T02:25:07;95547.00;;;22.10
54746;BMP180;40640;48.130;11.356;2023-07-20T02:29:10;95536.00;;;22.10
54746;BMP180;40640;48.130;11.356;2023-07-20T02:33:13;95536.00;;;22.10
54746;BMP180;40640;48.130;11.356;2023-07-20T02:37:17;95530.00;;;22.10
54746;BMP180;40640;48.130;11.356;2023-07-20T02:41:21;95546.00;;;22.10
54746;BMP180;40640;48.130;11.356;2023-07-20T02:45:24;95561.00;;;22.10
54746;BMP180;40640;48.130;11.356;2023-07-20T02:49:27;95548.00;;;22.10
54746;BMP180;40640;48.130;11.356;2023-07-20T02:53:31;95559.00;;;22.10
54746;BMP180;40640;48.130;11.356;2023-07-20T02:57:34;95561.00;;;22.00
54746;BMP180;40640;48.130;11.356;2023-07-20T03:01:37;95569.00;;;21.90
54746;BMP180;40640;48.130;11.356;2023-07-20T03:05:40;95571.00;;;21.80
54746;BMP180;40640;48.130;11.356;2023-07-20T03:09:45;95575.00;;;21.60
54746;BMP180;40640;48.130;11.356;2023-07-20T03:13:48;95592.00;;;21.60
54746;BMP180;40640;48.130;11.356;2023-07-20T03:17:51;95599.00;;;21.60
54746;BMP180;40640;48.130;11.356;2023-07-20T03:21:54;95590.00;;;21.40
54746;BMP180;40640;48.130;11.356;2023-07-20T03:25:58;95582.00;;;21.20
54746;BMP180;40640;48.130;11.356;2023-07-20T03:30:02;95589.00;;;21.10
54746;BMP180;40640;48.130;11.356;2023-07-20T03:34:05;95590.00;;;20.80
54746;BMP180;40640;48.130;11.356;2023-07-20T03:38:11;95601.00;;;20.90
54746;BMP180;40640;48.130;11.356;2023-07-20T03:42:15;95595.00;;;20.80
54746;BMP180;40640;48.130;11.356;2023-07-20T03:46:18;95597.00;;;20.80
54746;BMP180;40640;48.130;11.356;2023-07-20T03:50:21;95604.00;;;20.70
54746;BMP180;40640;48.130;11.356;2023-07-20T03:54:24;95603.00;;;20.70
54746;BMP180;40640;48.130;11.356;2023-07-20T03:58:29;95601.00;;;20.70
54746;BMP180;40640;48.130;11.356;2023-07-20T04:02:33;95600.00;;;20.60
54746;BMP180;40640;48.130;11.356;2023-07-20T04:06:36;95595.00;;;20.60
54746;BMP180;40640;48.130;11.356;2023-07-20T04:10:39;95601.00;;;20.70
54746;BMP180;40640;48.130;11.356;2023-07-20T04:14:43;95602.00;;;20.60
54746;BMP180;40640;48.130;11.356;2023-07-20T04:18:46;95606.00;;;20.60
54746;BMP180;40640;48.130;11.356;2023-07-20T04:22:49;95607.00;;;20.60
54746;BMP180;40640;48.130;11.356;2023-07-20T04:26:53;95609.00;;;20.60
54746;BMP180;40640;48.130;11.356;2023-07-20T04:31:09;95612.00;;;20.70
54746;BMP180;40640;48.130;11.356;2023-07-20T04:35:17;95616.00;;;20.50
54746;BMP180;40640;48.130;11.356;2023-07-20T04:39:22;95619.00;;;20.50
54746;BMP180;40640;48.130;11.356;2023-07-20T04:43:41;95626.00;;;20.60
54746;BMP180;40640;48.130;11.356;2023-07-20T04:47:46;95631.00;;;20.60
54746;BMP180;40640;48.130;11.356;2023-07-20T04:51:49;95633.00;;;20.60
54746;BMP180;40640;48.130;11.356;2023-07-20T04:55:52;95637.00;;;20.70
54746;BMP180;40640;48.130;11.356;2023-07-20T04:59:58;95632.00;;;20.60
54746;BMP180;40640;48.130;11.356;2023-07-20T05:04:02;95626.00;;;20.40
54746;BMP180;40640;48.130;11.356;2023-07-20T05:08:05;95630.00;;;20.40
54746;BMP180;40640;48.130;11.356;2023-07-20T05:12:08;95632.00;;;20.40
54746;BMP180;40640;48.130;11.356;2023-07-20T05:16:14;95627.00;;;20.50
54746;BMP180;40640;48.130;11.356;2023-07-20T05:20:19;95638.00;;;20.50
54746;BMP180;40640;48.130;11.356;2023-07-20T05:24:22;95626.00;;;20.60
54746;BMP180;40640;48.130;11.356;2023-07-20T05:28:25;95624.00;;;20.80
54746;BMP180;40640;48.130;11.356;2023-07-20T05:32:28;95622.00;;;20.80
54746;BMP180;40640;48.130;11.356;2023-07-20T05:36:33;95632.00;;;20.90
54746;BMP180;40640;48.130;11.356;2023-07-20T05:40:37;95626.00;;;20.90
54746;BMP180;40640;48.130;11.356;2023-07-20T05:44:40;95629.00;;;20.80
54746;BMP180;40640;48.130;11.356;2023-07-20T05:48:43;95628.00;;;20.90
54746;BMP180;40640;48.130;11.356;2023-07-20T05:52:48;95641.00;;;21.10
54746;BMP180;40640;48.130;11.356;2023-07-20T05:56:51;95635.00;;;21.10
54746;BMP180;40640;48.130;11.356;2023-07-20T06:00:53;95633.00;;;21.20
54746;BMP180;40640;48.130;11.356;2023-07-20T06:04:56;95629.00;;;21.50
54746;BMP180;40640;48.130;11.356;2023-07-20T06:09:01;95638.00;;;21.50
54746;BMP180;40640;48.130;11.356;2023-07-20T06:13:05;95642.00;;;21.50
54746;BMP180;40640;48.130;11.356;2023-07-20T06:17:08;95645.00;;;21.50
54746;BMP180;40640;48.130;11.356;2023-07-20T06:21:11;95654.00;;;21.50
54746;BMP180;40640;48.130;11.356;2023-07-20T06:25:15;95642.00;;;21.50
54746;BMP180;40640;48.130;11.356;2023-07-20T06:29:19;95643.00;;;21.50
54746;BMP180;40640;48.130;11.356;2023-07-20T06:33:21;95642.00;;;21.60
54746;BMP180;40640;48.130;11.356;2023-07-20T06:37:24;95639.00;;;21.70
54746;BMP180;40640;48.130;11.356;2023-07-20T06:41:29;95638.00;;;21.70
54746;BMP180;40640;48.130;11.356;2023-07-20T06:45:34;95642.00;;;22.10
54746;BMP180;40640;48.130;11.356;2023-07-20T06:49:37;95634.00;;;22.30
54746;BMP180;40640;48.130;11.356;2023-07-20T06:53:40;95628.00;;;22.30
54746;BMP180;40640;48.130;11.356;2023-07-20T06:57:44;95634.00;;;22.90
54746;BMP180;40640;48.130;11.356;2023-07-20T07:01:49;95634.00;;;23.30
54746;BMP180;40640;48.130;11.356;2023-07-20T07:05:55;95629.00;;;23.60
54746;BMP180;40640;48.130;11.356;2023-07-20T07:09:59;95629.00;;;24.10
54746;BMP180;40640;48.130;11.356;2023-07-20T07:14:03;95634.00;;;24.10
54746;BMP180;40640;48.130;11.356;2023-07-20T07:18:06;95634.00;;;23.90
54746;BMP180;40640;48.130;11.356;2023-07-20T07:22:09;95623.00;;;23.60
54746;BMP180;40640;48.130;11.356;2023-07-20T07:26:13;95634.00;;;23.40
54746;BMP180;40640;48.130;11.356;2023-07-20T07:30:18;95627.00;;;23.30
54746;BMP180;40640;48.130;11.356;2023-07-20T07:34:20;95637.00;;;23.30
54746;BMP180;40640;48.130;11.356;2023-07-20T07:38:23;95647.00;;;23.30
54746;BMP180;40640;48.130;11.356;2023-07-20T07:42:32;95640.00;;;23.30
54746;BMP180;40640;48.130;11.356;2023-07-20T07:46:36;95641.00;;;23.60
54746;BMP180;40640;48.130;11.356;2023-07-20T07:50:39;95633.00;;;23.60
54746;BMP180;40640;48.130;11.356;2023-07-20T07:54:42;95631.00;;;23.60
54746;BMP180;40640;48.130;11.356;2023-07-20T07:58:45;95634.00;;;23.70
54746;BMP180;40640;48.130;11.356;2023-07-20T08:02:50;95647.00;;;23.80
54746;BMP180;40640;48.130;11.356;2023-07-20T08:06:54;95632.00;;;24.10
54746;BMP180;40640;48.130;11.356;2023-07-20T08:10:57;95636.00;;;24.60
54746;BMP180;40640;48.130;11.356;2023-07-20T08:15:01;95645.00;;;24.40
54746;BMP180;40640;48.130;11.356;2023-07-20T08:19:05;95645.00;;;24.50
54746;BMP180;40640;48.130;11.356;2023-07-20T08:23:08;95645.00;;;24.90
54746;BMP180;40640;48.130;11.356;2023-07-20T08:27:11;95641.00;;;25.10
54746;BMP180;40640;48.130;11.356;2023-07-20T08:31:14;95649.00;;;24.90
54746;BMP180;40640;48.130;11.356;2023-07-20T08:35:19;95654.00;;;25.00
54746;BMP180;40640;48.130;11.356;2023-07-20T08:39:23;95656.00;;;25.00
54746;BMP180;40640;48.130;11.356;2023-07-20T08:43:27;95653.00;;;24.90
54746;BMP180;40640;48.130;11.356;2023-07-20T08:47:30;95659.00;;;24.80
54746;BMP180;40640;48.130;11.356;2023-07-20T08:51:35;95659.00;;;24.60
54746;BMP180;40640;48.130;11.356;2023-07-20T08:55:39;95657.00;;;24.20
54746;BMP180;40640;48.130;11.356;2023-07-20T08:59:43;95653.00;;;24.40
54746;BMP180;40640;48.130;11.356;2023-07-20T09:03:47;95638.00;;;24.30
54746;BMP180;40640;48.130;11.356;2023-07-20T09:07:52;95644.00;;;24.60
54746;BMP180;40640;48.130;11.356;2023-07-20T09:11:55;95645.00;;;24.90
54746;BMP180;40640;48.130;11.356;2023-07-20T09:15:58;95641.00;;;25.00
54746;BMP180;40640;48.130;11.356;2023-07-20T09:20:02;95645.00;;;24.80
54746;BMP180;40640;48.130;11.356;2023-07-20T09:24:11;95636.00;;;25.30
54746;BMP180;40640;48.130;11.356;2023-07-20T09:28:13;95627.00;;;25.50
54746;BMP180;40640;48.130;11.356;2023-07-20T09:32:18;95626.00;;;25.60
54746;BMP180;40640;48.130;11.356;2023-07-20T09:36:26;95629.00;;;25.60
54746;BMP180;40640;48.130;11.356;2023-07-20T09:40:37;95635.00;;;25.50
54746;BMP180;40640;48.130;11.356;2023-07-20T09:44:44;95630.00;;;26.30
54746;BMP180;40640;48.130;11.356;2023-07-20T09:48:53;95625.00;;;26.90
54746;BMP180;40640;48.130;11.356;2023-07-20T09:53:00;95624.00;;;26.30
54746;BMP180;40640;48.130;11.356;2023-07-20T09:57:08;95614.00;;;26.50
54746;BMP180;40640;48.130;11.356;2023-07-20T10:01:16;95618.00;;;26.70
54746;BMP180;40640;48.130;11.356;2023-07-20T10:05:24;95626.00;;;26.90
54746;BMP180;40640;48.130;11.356;2023-07-20T10:09:29;95622.00;;;27.00
54746;BMP180;40640;48.130;11.356;2023-07-20T10:13:38;95630.00;;;26.70
54746;BMP180;40640;48.130;11.356;2023-07-20T10:17:48;95630.00;;;26.50
54746;BMP180;40640;48.130;11.356;2023-07-20T10:21:56;95619.00;;;26.60
54746;BMP180;40640;48.130;11.356;2023-07-20T10:26:01;95617.00;;;26.80
54746;BMP180;40640;48.130;11.356;2023-07-20T10:30:06;95614.00;;;27.00
54746;BMP180;40640;48.130;11.356;2023-07-20T10:34:10;95614.00;;;27.10
54746;BMP180;40640;48.130;11.356;2023-07-20T10:38:14;95606.00;;;27.50
54746;BMP180;40640;48.130;11.356;2023-07-20T10:42:17;95606.00;;;27.40
54746;BMP180;40640;48.130;11.356;2023-07-20T10:46:42;95611.00;;;27.20
54746;BMP180;40640;48.130;11.356;2023-07-20T10:51:11;95604.00;;;27.20
54746;BMP180;40640;48.130;11.356;2023-07-20T10:55:15;95600.00;;;27.20
54746;BMP180;40640;48.130;11.356;2023-07-20T10:59:19;95605.00;;;27.60
54746;BMP180;40640;48.130;11.356;2023-07-20T11:03:31;95591.00;;;27.70
54746;BMP180;40640;48.130;11.356;2023-07-20T11:07:38;95590.00;;;27.50
54746;BMP180;40640;48.130;11.356;2023-07-20T11:11:44;95573.00;;;27.80
54746;BMP180;40640;48.130;11.356;2023-07-20T11:15:54;95588.00;;;27.50
54746;BMP180;40640;48.130;11.356;2023-07-20T11:20:06;95589.00;;;27.50
54746;BMP180;40640;48.130;11.356;2023-07-20T11:24:12;95586.00;;;27.30
54746;BMP180;40640;48.130;11.356;2023-07-20T11:28:16;95591.00;;;27.10
54746;BMP180;40640;48.130;11.356;2023-07-20T11:32:20;95589.00;;;26.80
54746;BMP180;40640;48.130;11.356;2023-07-20T11:36:25;95584.00;;;26.80
54746;BMP180;40640;48.130;11.356;2023-07-20T11:40:31;95582.00;;;27.10
54746;BMP180;40640;48.130;11.356;2023-07-20T11:44:34;95565.00;;;27.30
54746;BMP180;40640;48.130;11.356;2023-07-20T11:48:37;95564.00;;;27.60
54746;BMP180;40640;48.130;11.356;2023-07-20T11:52:43;95569.00;;;27.40
54746;BMP180;40640;48.130;11.356;2023-07-20T11:56:46;95562.00;;;27.40
54746;BMP180;40640;48.130;11.356;2023-07-20T12:00:50;95553.00;;;27.90
54746;BMP180;40640;48.130;11.356;2023-07-20T12:04:54;95555.00;;;28.40
54746;BMP180;40640;48.130;11.356;2023-07-20T12:08:58;95535.00;;;28.90
54746;BMP180;40640;48.130;11.356;2023-07-20T12:13:02;95546.00;;;29.70
54746;BMP180;40640;48.130;11.356;2023-07-20T12:17:08;95540.00;;;31.00
54746;BMP180;40640;48.130;11.356;2023-07-20T12:21:11;95533.00;;;31.50
54746;BMP180;40640;48.130;11.356;2023-07-20T12:25:15;95523.00;;;32.50
54746;BMP180;40640;48.130;11.356;2023-07-20T12:29:20;95532.00;;;32.80
54746;BMP180;40640;48.130;11.356;2023-07-20T12:33:23;95517.00;;;32.50
54746;BMP180;40640;48.130;11.356;2023-07-20T12:37:26;95517.00;;;31.60
54746;BMP180;40640;48.130;11.356;2023-07-20T12:41:30;95515.00;;;32.70
54746;BMP180;40640;48.130;11.356;2023-07-20T12:45:33;95517.00;;;31.00
54746;BMP180;40640;48.130;11.356;2023-07-20T12:49:36;95514.00;;;30.20
54746;BMP180;40640;48.130;11.356;2023-07-20T12:53:39;95510.00;;;30.80
54746;BMP180;40640;48.130;11.356;2023-07-20T12:57:43;95511.00;;;32.30
54746;BMP180;40640;48.130;11.356;2023-07-20T13:01:46;95502.00;;;31.30
54746;BMP180;40640;48.130;11.356;2023-07-20T13:05:49;95504.00;;;32.60
54746;BMP180;40640;48.130;11.356;2023-07-20T13:09:55;95489.00;;;34.10
54746;BMP180;40640;48.130;11.356;2023-07-20T13:14:00;95501.00;;;31.20
54746;BMP180;40640;48.130;11.356;2023-07-20T13:18:03;95495.00;;;30.70
54746;BMP180;40640;48.130;11.356;2023-07-20T13:22:06;95482.00;;;30.20
54746;BMP180;40640;48.130;11.356;2023-07-20T13:26:08;95484.00;;;31.40
54746;BMP180;40640;48.130;11.356;2023-07-20T13:30:13;95487.00;;;32.00
54746;BMP180;40640;48.130;11.356;2023-07-20T13:34:18;95478.00;;;32.10
54746;BMP180;40640;48.130;11.356;2023-07-20T13:38:21;95478.00;;;32.30
54746;BMP180;40640;48.130;11.356;2023-07-20T13:42:24;95482.00;;;31.60
54746;BMP180;40640;48.130;11.356;2023-07-20T13:46:28;95468.00;;;31.00
54746;BMP180;40640;48.130;11.356;2023-07-20T13:50:34;95460.00;;;30.90
54746;BMP180;40640;48.130;11.356;2023-07-20T13:54:39;95468.00;;;30.60
54746;BMP180;40640;48.130;11.356;2023-07-20T13:58:48;95463.00;;;30.10
54746;BMP180;40640;48.130;11.356;2023-07-20T14:02:53;95453.00;;;29.60
54746;BMP180;40640;48.130;11.356;2023-07-20T14:06:58;95450.00;;;29.70
54746;BMP180;40640;48.130;11.356;2023-07-20T14:11:01;95452.00;;;29.40
54746;BMP180;40640;48.130;11.356;2023-07-20T14:15:09;95444.00;;;29.40
54746;BMP180;40640;48.130;11.356;2023-07-20T14:19:14;95443.00;;;29.50
54746;BMP180;40640;48.130;11.356;2023-07-20T14:23:17;95434.00;;;29.30
54746;BMP180;40640;48.130;11.356;2023-07-20T14:27:20;95431.00;;;29.20
54746;BMP180;40640;48.130;11.356;2023-07-20T14:31:23;95432.00;;;29.10
54746;BMP180;40640;48.130;11.356;2023-07-20T14:35:28;95425.00;;;29.00
54746;BMP180;40640;48.130;11.356;2023-07-20T14:39:31;95424.00;;;29.20
54746;BMP180;40640;48.130;11.356;2023-07-20T14:43:34;95423.00;;;29.20
54746;BMP180;40640;48.130;11.356;2023-07-20T14:47:37;95421.00;;;29.10
54746;BMP180;40640;48.130;11.356;2023-07-20T14:51:41;95414.00;;;29.20
54746;BMP180;40640;48.130;11.356;2023-07-20T14:55:48;95423.00;;;29.10
54746;BMP180;40640;48.130;11.356;2023-07-20T14:59:51;95417.00;;;29.00
54746;BMP180;40640;48.130;11.356;2023-07-20T15:03:54;95420.00;;;28.90
54746;BMP180;40640;48.130;11.356;2023-07-20T15:08:01;95411.00;;;28.90
54746;BMP180;40640;48.130;11.356;2023-07-20T15:12:05;95406.00;;;28.80
54746;BMP180;40640;48.130;11.356;2023-07-20T15:16:08;95401.00;;;28.70
54746;BMP180;40640;48.130;11.356;2023-07-20T15:20:13;95397.00;;;28.70
54746;BMP180;40640;48.130;11.356;2023-07-20T15:24:17;95392.00;;;28.50
54746;BMP180;40640;48.130;11.356;2023-07-20T15:28:21;95381.00;;;28.40
54746;BMP180;40640;48.130;11.356;2023-07-20T15:32:24;95381.00;;;28.30
54746;BMP180;40640;48.130;11.356;2023-07-20T15:36:27;95386.00;;;28.40
54746;BMP180;40640;48.130;11.356;2023-07-20T15:40:32;95384.00;;;28.40
54746;BMP180;40640;48.130;11.356;2023-07-20T15:44:35;95379.00;;;28.30
54746;BMP180;40640;48.130;11.356;2023-07-20T15:48:38;95374.00;;;28.30
54746;BMP180;40640;48.130;11.356;2023-07-20T15:52:43;95369.00;;;28.20
54746;BMP180;40640;48.130;11.356;2023-07-20T15:56:48;95370.00;;;28.20
54746;BMP180;40640;48.130;11.356;2023-07-20T16:00:53;95365.00;;;28.00
54746;BMP180;40640;48.130;11.356;2023-07-20T16:04:57;95365.00;;;27.90
54746;BMP180;40640;48.130;11.356;2023-07-20T16:09:15;95355.00;;;27.70
54746;BMP180;40640;48.130;11.356;2023-07-20T16:13:19;95356.00;;;27.80
54746;BMP180;40640;48.130;11.356;2023-07-20T16:17:22;95352.00;;;27.70
54746;BMP180;40640;48.130;11.356;2023-07-20T16:21:28;95345.00;;;27.70
54746;BMP180;40640;48.130;11.356;2023-07-20T16:25:33;95350.00;;;27.70
54746;BMP180;40640;48.130;11.356;2023-07-20T16:29:37;95338.00;;;27.70
54746;BMP180;40640;48.130;11.356;2023-07-20T16:33:45;95342.00;;;27.70
54746;BMP180;40640;48.130;11.356;2023-07-20T16:37:48;95339.00;;;27.70
54746;BMP180;40640;48.130;11.356;2023-07-20T16:42:11;95333.00;;;27.70
54746;BMP180;40640;48.130;11.356;2023-07-20T16:46:16;95333.00;;;27.60
54746;BMP180;40640;48.130;11.356;2023-07-20T16:50:22;95341.00;;;27.60
54746;BMP180;40640;48.130;11.356;2023-07-20T16:54:25;95338.00;;;27.50
54746;BMP180;40640;48.130;11.356;2023-07-20T16:58:28;95339.00;;;27.50
54746;BMP180;40640;48.130;11.356;2023-07-20T17:02:32;95329.00;;;27.50
54746;BMP180;40640;48.130;11.356;2023-07-20T17:06:35;95335.00;;;27.50
54746;BMP180;40640;48.130;11.356;2023-07-20T17:10:39;95336.00;;;27.50
54746;BMP180;40640;48.130;11.356;2023-07-20T17:14:42;95332.00;;;27.50
54746;BMP180;40640;48.130;11.356;2023-07-20T17:18:46;95331.00;;;27.40
54746;BMP180;40640;48.130;11.356;2023-07-20T17:22:49;95333.00;;;27.20
54746;BMP180;40640;48.130;11.356;2023-07-20T17:26:51;95336.00;;;27.10
54746;BMP180;40640;48.130;11.356;2023-07-20T17:31:15;95331.00;;;27.00
54746;BMP180;40640;48.130;11.356;2023-07-20T17:35:20;95334.00;;;26.90
54746;BMP180;40640;48.130;11.356;2023-07-20T17:39:23;95344.00;;;26.80
54746;BMP180;40640;48.130;11.356;2023-07-20T17:43:46;95338.00;;;26.70
54746;BMP180;40640;48.130;11.356;2023-07-20T17:47:49;95343.00;;;26.60
54746;BMP180;40640;48.130;11.356;2023-07-20T17:51:53;95337.00;;;26.60
54746;BMP180;40640;48.130;11.356;2023-07-20T17:55:57;95339.00;;;26.50
54746;BMP180;40640;48.130;11.356;2023-07-20T18:00:00;95336.00;;;26.50
54746;BMP180;40640;48.130;11.356;2023-07-20T18:04:09;95329.00;;;26.30
54746;BMP180;40640;48.130;11.356;2023-07-20T18:08:13;95335.00;;;26.30
54746;BMP180;40640;48.130;11.356;2023-07-20T18:12:16;95331.00;;;26.10
54746;BMP180;40640;48.130;11.356;2023-07-20T18:16:19;95336.00;;;26.00
54746;BMP180;40640;48.130;11.356;2023-07-20T18:20:22;95326.00;;;25.70
54746;BMP180;40640;48.130;11.356;2023-07-20T18:24:27;95331.00;;;25.60
54746;BMP180;40640;48.130;11.356;2023-07-20T18:28:30;95334.00;;;25.50
54746;BMP180;40640;48.130;11.356;2023-07-20T18:32:33;95324.00;;;25.30
54746;BMP180;40640;48.130;11.356;2023-07-20T18:36:36;95327.00;;;25.20
54746;BMP180;40640;48.130;11.356;2023-07-20T18:40:41;95323.00;;;25.10
54746;BMP180;40640;48.130;11.356;2023-07-20T18:44:44;95327.00;;;25.00
54746;BMP180;40640;48.130;11.356;2023-07-20T18:48:47;95331.00;;;24.90
54746;BMP180;40640;48.130;11.356;2023-07-20T18:52:49;95333.00;;;24.80
54746;BMP180;40640;48.130;11.356;2023-07-20T18:56:55;95338.00;;;24.70
54746;BMP180;40640;48.130;11.356;2023-07-20T19:00:58;95339.00;;;24.60
54746;BMP180;40640;48.130;11.356;2023-07-20T19:05:01;95340.00;;;24.50
54746;BMP180;40640;48.130;11.356;2023-07-20T19:09:04;95343.00;;;24.40
54746;BMP180;40640;48.130;11.356;2023-07-20T19:13:08;95348.00;;;24.40
54746;BMP180;40640;48.130;11.356;2023-07-20T19:17:11;95345.00;;;24.30
54746;BMP180;40640;48.130;11.356;2023-07-20T19:21:15;95344.00;;;24.20
54746;BMP180;40640;48.130;11.356;2023-07-20T19:25:18;95355.00;;;24.10
54746;BMP180;40640;48.130;11.356;2023-07-20T19:29:22;95361.00;;;24.00
54746;BMP180;40640;48.130;11.356;2023-07-20T19:33:25;95363.00;;;24.00
54746;BMP180;40640;48.130;11.356;2023-07-20T19:37:29;95367.00;;;23.90
54746;BMP180;40640;48.130;11.356;2023-07-20T19:41:31;95373.00;;;23.80
54746;BMP180;40640;48.130;11.356;2023-07-20T19:45:36;95368.00;;;23.70
54746;BMP180;40640;48.130;11.356;2023-07-20T19:49:39;95379.00;;;23.70
54746;BMP180;40640;48.130;11.356;2023-07-20T19:53:41;95378.00;;;23.60
54746;BMP180;40640;48.130;11.356;2023-07-20T19:58:04;95387.00;;;23.50
54746;BMP180;40640;48.130;11.356;2023-07-20T20:02:09;95382.00;;;23.30
54746;BMP180;40640;48.130;11.356;2023-07-20T20:06:12;95390.00;;;23.20
54746;BMP180;40640;48.130;11.356;2023-07-20T20:10:14;95381.00;;;23.10
54746;BMP180;40640;48.130;11.356;2023-07-20T20:14:18;95386.00;;;23.10
54746;BMP180;40640;48.130;11.356;2023-07-20T20:18:22;95389.00;;;23.00
54746;BMP180;40640;48.130;11.356;2023-07-20T20:22:26;95391.00;;;23.00
54746;BMP180;40640;48.130;11.356;2023-07-20T20:26:29;95387.00;;;22.90
54746;BMP180;40640;48.130;11.356;2023-07-20T20:30:32;95386.00;;;22.70
54746;BMP180;40640;48.130;11.356;2023-07-20T20:34:36;95380.00;;;22.60
54746;BMP180;40640;48.130;11.356;2023-07-20T20:38:39;95379.00;;;22.60
54746;BMP180;40640;48.130;11.356;2023-07-20T20:42:42;95377.00;;;22.50
54746;BMP180;40640;48.130;11.356;2023-07-20T20:46:45;95379.00;;;22.50
54746;BMP180;40640;48.130;11.356;2023-07-20T20:50:49;95376.00;;;22.40
54746;BMP180;40640;48.130;11.356;2023-07-20T20:54:52;95370.00;;;22.30
54746;BMP180;40640;48.130;11.356;2023-07-20T20:58:55;95377.00;;;22.20
54746;BMP180;40640;48.130;11.356;2023-07-20T21:02:58;95372.00;;;22.20
54746;BMP180;40640;48.130;11.356;2023-07-20T21:07:03;95367.00;;;22.10
54746;BMP180;40640;48.130;11.356;2023-07-20T21:11:06;95374.00;;;22.00
54746;BMP180;40640;48.130;11.356;2023-07-20T21:15:09;95355.00;;;21.80
54746;BMP180;40640;48.130;11.356;2023-07-20T21:19:12;95361.00;;;21.70
54746;BMP180;40640;48.130;11.356;2023-07-20T21:23:17;95359.00;;;21.70
54746;BMP180;40640;48.130;11.356;2023-07-20T21:27:21;95362.00;;;21.60
54746;BMP180;40640;48.130;11.356;2023-07-20T21:31:24;95356.00;;;21.60
54746;BMP180;40640;48.130;11.356;2023-07-20T21:35:27;95367.00;;;21.50
54746;BMP180;40640;48.130;11.356;2023-07-20T21:39:31;95357.00;;;21.40
54746;BMP180;40640;48.130;11.356;2023-07-20T21:43:34;95355.00;;;21.40
54746;BMP180;40640;48.130;11.356;2023-07-20T21:47:37;95362.00;;;21.30
54746;BMP180;40640;48.130;11.356;2023-07-20T21:51:40;95354.00;;;21.30
54746;BMP180;40640;48.130;11.356;2023-07-20T21:55:46;95358.00;;;21.10
54746;BMP180;40640;48.130;11.356;2023-07-20T21:59:50;95360.00;;;20.90
54746;BMP180;40640;48.130;11.356;2023-07-20T22:03:53;95351.00;;;20.90
54746;BMP180;40640;48.130;11.356;2023-07-20T22:07:56;95357.00;;;20.80
54746;BMP180;40640;48.130;11.356;2023-07-20T22:12:02;95350.00;;;20.50
54746;BMP180;40640;48.130;11.356;2023-07-20T22:16:05;95354.00;;;20.40
54746;BMP180;40640;48.130;11.356;2023-07-20T22:20:09;95349.00;;;20.30
54746;BMP180;40640;48.130;11.356;2023-07-20T22:24:15;95356.00;;;20.30
54746;BMP180;40640;48.130;11.356;2023-07-20T22:28:19;95348.00;;;20.20
54746;BMP180;40640;48.130;11.356;2023-07-20T22:32:22;95351.00;;;20.20
54746;BMP180;40640;48.130;11.356;2023-07-20T22:36:25;95345.00;;;20.10
54746;BMP180;40640;48.130;11.356;2023-07-20T22:40:28;95336.00;;;20.10
54746;BMP180;40640;48.130;11.356;2023-07-20T22:44:36;95337.00;;;20.10
54746;BMP180;40640;48.130;11.356;2023-07-20T22:48:39;95347.00;;;20.10
54746;BMP180;40640;48.130;11.356;2023-07-20T22:52:42;95348.00;;;20.10
54746;BMP180;40640;48.130;11.356;2023-07-20T22:56:45;95351.00;;;20.00
54746;BMP180;40640;48.130;11.356;2023-07-20T23:00:49;95345.00;;;20.00
54746;BMP180;40640;48.130;11.356;2023-07-20T23:04:52;95348.00;;;20.00
54746;BMP180;40640;48.130;11.356;2023-07-20T23:08:56;95337.00;;;19.80